Flight Track Log - Related Links

Times and Time Zones

All times are in EDT time to prevent confusion due to time zone crossing. See the SWA1233 flight status page for this flight to view local times or setup timezone preferences in your user account.

Time Position Orientation Groundspeed Altitude Reporting Facility
EDT Latitude Longitude Course Direction KTS MPH feet Rate Location/Type
Sat 04:46:59 PM 34.1667 -118.3667 348° North 171 197 3,100  Level Southern California TRACON
Sat 04:48:11 PM 34.1181 -118.4331 229° Southwest 235 270 5,800 2,687 Climbing Los Angeles Center
Sat 04:49:13 PM 34.1583 -118.4933 309° West 255 293 9,100 3,532 Climbing Los Angeles Center
Sat 04:50:15 PM 34.2467 -118.5431 335° Northwest 289 333 13,100 3,581 Climbing Los Angeles Center
Sat 04:51:17 PM 34.3342 -118.5933 335° Northwest 346 398 16,500 3,290 Climbing Los Angeles Center
Sat 04:52:00 PM 34.7173 -118.7088 348° North  Level Estimated
Sat 04:52:19 PM 34.4269 -118.6458 335° Northwest 368 423 19,900  Level Los Angeles Center
Sat 04:53:21 PM 34.5233 -118.7000 335° Northwest 382 440 23,300 2,927 Climbing Los Angeles Center
Sat 04:54:22 PM 34.6256 -118.7531 337° Northwest 399 459 25,900 2,488 Climbing Los Angeles Center
Sat 04:55:24 PM 34.7369 -118.8031 340° North 422 486 28,400 2,162 Climbing Los Angeles Center
Sat 04:56:38 PM 34.8525 -118.8567 339° North 438 504 30,800 2,471 Climbing Los Angeles Center
Sat 04:57:40 PM 34.9967 -118.9231 339° North 441 507 34,000 2,758 Climbing Los Angeles Center
Sat 04:58:42 PM 35.1347 -118.9856 340° North 443 510 36,500 2,129 Climbing Los Angeles Center
Sat 04:59:44 PM 35.2492 -119.0383 339° North 442 509 38,400 1,694 Climbing Los Angeles Center
Sat 05:00:46 PM 35.3642 -119.0903 340° North 443 510 40,000 774 Climbing Los Angeles Center
Sat 05:01:48 PM 35.4761 -119.1436 339° North 437 503 40,000  Level Los Angeles Center
Sat 05:03:02 PM 35.5883 -119.1953 339° North 434 499 40,000  Level Los Angeles Center
Sat 05:04:04 PM 35.7206 -119.2589 339° North 430 495 40,000  Level Los Angeles Center
Sat 05:05:06 PM 35.8503 -119.3292 336° Northwest 426 490 40,000  Level Los Angeles Center
Sat 05:06:08 PM 35.9539 -119.3969 332° Northwest 423 487 40,000  Level Los Angeles Center
Sat 05:07:10 PM 36.0597 -119.4636 333° Northwest 428 493 40,000  Level Los Angeles Center
Sat 05:08:13 PM 36.1644 -119.5319 332° Northwest 428 493 40,000  Level Los Angeles Center
Sat 05:09:14 PM 36.2694 -119.5997 333° Northwest 427 491 40,000  Level Los Angeles Center
Sat 05:10:26 PM 36.3956 -119.6781 333° Northwest 429 494 40,000 -406 Level Oakland Center
Sat 05:11:27 PM 36.5228 -119.7611 332° Northwest 433 498 39,100 -934 Descending Oakland Center
Sat 05:12:28 PM 36.6311 -119.8308 333° Northwest 437 503 38,100 -934 Descending Oakland Center
Sat 05:13:29 PM 36.7381 -119.9019 332° Northwest 437 503 37,200 -934 Descending Oakland Center
Sat 05:14:30 PM 36.8450 -119.9711 333° Northwest 435 501 36,200 -1,073 Descending Oakland Center
Sat 05:15:32 PM 36.9519 -120.0417 332° Northwest 436 502 35,000 -1,805 Descending Oakland Center
Sat 05:16:33 PM 37.0578 -120.1122 332° Northwest 434 499 32,500 -2,410 Descending Oakland Center
Sat 05:17:34 PM 37.1622 -120.1794 333° Northwest 423 487 30,100 -2,311 Descending Oakland Center
Sat 05:18:35 PM 37.2611 -120.2456 332° Northwest 408 470 27,800 -2,262 Descending Oakland Center
Sat 05:19:36 PM 37.3567 -120.3067 333° Northwest 392 451 25,500 -1,869 Descending Oakland Center
Sat 05:20:37 PM 37.4481 -120.3728 330° Northwest 380 437 24,000 -1,122 Descending Oakland Center
Sat 05:21:39 PM 37.5269 -120.4550 320° Northwest 369 425 23,200 -976 Descending Oakland Center
Sat 05:22:40 PM 37.6239 -120.5503 322° Northwest 367 422 22,000 -1,033 Descending Oakland Center
Sat 05:23:41 PM 37.7003 -120.6261 322° Northwest 351 404 21,100 -984 Descending Oakland Center
Sat 05:24:42 PM 37.7767 -120.7042 321° Northwest 353 406 20,000 -984 Descending Oakland Center
Sat 05:25:43 PM 37.8506 -120.7781 322° Northwest 338 389 19,100 -960 Descending Oakland Center
Sat 05:26:47 PM 37.9231 -120.8528 321° Northwest 335 386 18,000 -976 Descending Oakland Center
Sat 05:27:46 PM 37.9944 -120.9236 322° Northwest 327 376 17,100 -950 Descending Oakland Center
Sat 05:28:47 PM 38.0633 -120.9953 321° Northwest 322 371 16,100 -1,426 Descending Oakland Center
Sat 05:29:48 PM 38.1228 -121.0769 313° West 315 362 14,200 -1,279 Descending Oakland Center
Sat 05:30:49 PM 38.1772 -121.1572 311° West 301 346 13,500 -1,082 Descending Oakland Center
Sat 05:31:50 PM 38.2306 -121.2358 311° West 294 338 12,000 -1,525 Descending Oakland Center
Sat 05:32:51 PM 38.2861 -121.3169 311° West 300 345 10,400 -896 Descending Oakland Center
Sat 05:34:04 PM 38.3500 -121.4167 309° West 291 335 10,000 -189 Descending Northern Cal TRACON
Sat 05:34:58 PM 38.4000 -121.5000 307° West 295 339 10,000 -526 Level Northern Cal TRACON
Sat 05:35:58 PM 38.4667 -121.5667 322° Northwest 284 327 9,000 -1,200 Descending Northern Cal TRACON
Sat 05:36:58 PM 38.5333 -121.6167 330° Northwest 271 312 7,600 -1,400 Descending Northern Cal TRACON
Sat 05:37:58 PM 38.5833 -121.6667 322° Northwest 263 303 6,200 -1,438 Descending Northern Cal TRACON
Sat 05:38:59 PM 38.6553 -121.6994 340° North 264 304 4,700 -1,279 Descending Oakland Center
Sat 05:40:00 PM 38.7275 -121.7047 357° North 260 299 3,600 -836 Descending Oakland Center
Sat 05:41:01 PM 38.7906 -121.6944 North 246 283 3,000 -393 Descending Oakland Center
Sat 05:42:02 PM 38.8161 -121.6342 61° Northeast 217 250 2,800 -661 Descending Oakland Center
Sat 05:42:59 PM 38.7833 -121.6000 141° Southeast 154 177 1,700 -974 Descending Northern Cal TRACON
Sat 05:43:59 PM 38.7500 -121.6000 180° South 139 160 900 -700 Descending Northern Cal TRACON
Sat 05:44:59 PM 38.7167 -121.6000 180° South 119 137 300 -600 Descending Northern Cal TRACON

Login

Don't have an account? Register now (free) for customized features, flight alerts, and more!